sensor_id;sensor_type;location;lat;lon;timestamp;temperature;humidity
46706;DHT22;33519;50.712;7.124;2023-04-16T00:01:14;7.60;99.90
46706;DHT22;33519;50.712;7.124;2023-04-16T00:03:41;7.60;99.90
46706;DHT22;33519;50.712;7.124;2023-04-16T00:06:09;7.60;99.90
46706;DHT22;33519;50.712;7.124;2023-04-16T00:08:36;7.60;99.90
46706;DHT22;33519;50.712;7.124;2023-04-16T00:11:04;7.60;99.90
46706;DHT22;33519;50.712;7.124;2023-04-16T00:13:31;7.60;99.90
46706;DHT22;33519;50.712;7.124;2023-04-16T00:15:57;7.60;99.90
46706;DHT22;33519;50.712;7.124;2023-04-16T00:18:24;7.60;99.90
46706;DHT22;33519;50.712;7.124;2023-04-16T00:20:51;7.60;99.90
46706;DHT22;33519;50.712;7.124;2023-04-16T00:23:19;7.60;99.90
46706;DHT22;33519;50.712;7.124;2023-04-16T00:25:48;7.60;99.90
46706;DHT22;33519;50.712;7.124;2023-04-16T00:28:15;7.60;99.90
46706;DHT22;33519;50.712;7.124;2023-04-16T00:30:41;7.60;99.90
46706;DHT22;33519;50.712;7.124;2023-04-16T00:33:08;7.60;99.90
46706;DHT22;33519;50.712;7.124;2023-04-16T00:35:35;7.60;99.90
46706;DHT22;33519;50.712;7.124;2023-04-16T00:38:03;7.60;99.90
46706;DHT22;33519;50.712;7.124;2023-04-16T00:40:29;7.50;99.90
46706;DHT22;33519;50.712;7.124;2023-04-16T00:42:59;7.60;99.90
46706;DHT22;33519;50.712;7.124;2023-04-16T00:45:25;7.60;99.90
46706;DHT22;33519;50.712;7.124;2023-04-16T00:47:52;7.60;99.90
46706;DHT22;33519;50.712;7.124;2023-04-16T00:50:19;7.50;99.90
46706;DHT22;33519;50.712;7.124;2023-04-16T00:52:47;7.60;99.90
46706;DHT22;33519;50.712;7.124;2023-04-16T00:55:14;7.60;99.90
46706;DHT22;33519;50.712;7.124;2023-04-16T00:57:43;7.60;99.90
46706;DHT22;33519;50.712;7.124;2023-04-16T01:00:10;7.60;99.90
46706;DHT22;33519;50.712;7.124;2023-04-16T01:02:37;7.60;99.90
46706;DHT22;33519;50.712;7.124;2023-04-16T01:05:04;7.60;99.90
46706;DHT22;33519;50.712;7.124;2023-04-16T01:07:31;7.60;99.90
46706;DHT22;33519;50.712;7.124;2023-04-16T01:09:57;7.70;99.90
46706;DHT22;33519;50.712;7.124;2023-04-16T01:12:24;7.70;99.90
46706;DHT22;33519;50.712;7.124;2023-04-16T01:14:51;7.60;99.90
46706;DHT22;33519;50.712;7.124;2023-04-16T01:17:20;7.70;99.90
46706;DHT22;33519;50.712;7.124;2023-04-16T01:19:47;7.70;99.90
46706;DHT22;33519;50.712;7.124;2023-04-16T01:22:14;7.70;99.90
46706;DHT22;33519;50.712;7.124;2023-04-16T01:24:41;7.70;99.90
46706;DHT22;33519;50.712;7.124;2023-04-16T01:27:08;7.70;99.90
46706;DHT22;33519;50.712;7.124;2023-04-16T01:29:35;7.70;99.90
46706;DHT22;33519;50.712;7.124;2023-04-16T01:32:01;7.70;99.90
46706;DHT22;33519;50.712;7.124;2023-04-16T01:34:28;7.70;99.90
46706;DHT22;33519;50.712;7.124;2023-04-16T01:36:55;7.70;99.90
46706;DHT22;33519;50.712;7.124;2023-04-16T01:39:21;7.70;99.90
46706;DHT22;33519;50.712;7.124;2023-04-16T01:41:48;7.70;99.90
46706;DHT22;33519;50.712;7.124;2023-04-16T01:44:14;7.70;99.90
46706;DHT22;33519;50.712;7.124;2023-04-16T01:46:41;7.70;99.90
46706;DHT22;33519;50.712;7.124;2023-04-16T01:49:08;7.60;99.90
46706;DHT22;33519;50.712;7.124;2023-04-16T01:51:35;7.60;99.90
46706;DHT22;33519;50.712;7.124;2023-04-16T01:54:02;7.70;99.90
46706;DHT22;33519;50.712;7.124;2023-04-16T01:56:29;7.60;99.90
46706;DHT22;33519;50.712;7.124;2023-04-16T01:58:56;7.60;99.90
46706;DHT22;33519;50.712;7.124;2023-04-16T02:01:23;7.60;99.90
46706;DHT22;33519;50.712;7.124;2023-04-16T02:03:50;7.70;99.90
46706;DHT22;33519;50.712;7.124;2023-04-16T02:06:17;7.60;99.90
46706;DHT22;33519;50.712;7.124;2023-04-16T02:08:44;7.70;99.90
46706;DHT22;33519;50.712;7.124;2023-04-16T02:11:10;7.60;99.90
46706;DHT22;33519;50.712;7.124;2023-04-16T02:13:37;7.60;99.90
46706;DHT22;33519;50.712;7.124;2023-04-16T02:16:07;7.60;99.90
46706;DHT22;33519;50.712;7.124;2023-04-16T02:18:34;7.60;99.90
46706;DHT22;33519;50.712;7.124;2023-04-16T02:21:01;7.60;99.90
46706;DHT22;33519;50.712;7.124;2023-04-16T02:23:27;7.60;99.90
46706;DHT22;33519;50.712;7.124;2023-04-16T02:25:55;7.50;99.90
46706;DHT22;33519;50.712;7.124;2023-04-16T02:28:21;7.50;99.90
46706;DHT22;33519;50.712;7.124;2023-04-16T02:30:48;7.60;99.90
46706;DHT22;33519;50.712;7.124;2023-04-16T02:33:18;7.50;99.90
46706;DHT22;33519;50.712;7.124;2023-04-16T02:35:45;7.50;99.90
46706;DHT22;33519;50.712;7.124;2023-04-16T02:38:14;7.50;99.90
46706;DHT22;33519;50.712;7.124;2023-04-16T02:40:40;7.60;99.90
46706;DHT22;33519;50.712;7.124;2023-04-16T02:43:07;7.60;99.90
46706;DHT22;33519;50.712;7.124;2023-04-16T02:45:34;7.60;99.90
46706;DHT22;33519;50.712;7.124;2023-04-16T02:48:01;7.60;99.90
46706;DHT22;33519;50.712;7.124;2023-04-16T02:50:28;7.60;99.90
46706;DHT22;33519;50.712;7.124;2023-04-16T02:52:54;7.60;99.90
46706;DHT22;33519;50.712;7.124;2023-04-16T02:55:21;7.50;99.90
46706;DHT22;33519;50.712;7.124;2023-04-16T02:57:48;7.50;99.90
46706;DHT22;33519;50.712;7.124;2023-04-16T03:00:14;7.50;99.90
46706;DHT22;33519;50.712;7.124;2023-04-16T03:02:41;7.50;99.90
46706;DHT22;33519;50.712;7.124;2023-04-16T03:05:11;7.50;99.90
46706;DHT22;33519;50.712;7.124;2023-04-16T03:07:37;7.50;99.90
46706;DHT22;33519;50.712;7.124;2023-04-16T03:10:07;7.50;99.90
46706;DHT22;33519;50.712;7.124;2023-04-16T03:12:34;7.50;99.90
46706;DHT22;33519;50.712;7.124;2023-04-16T03:15:01;7.60;99.90
46706;DHT22;33519;50.712;7.124;2023-04-16T03:17:28;7.50;99.90
46706;DHT22;33519;50.712;7.124;2023-04-16T03:19:55;7.50;99.90
46706;DHT22;33519;50.712;7.124;2023-04-16T03:22:22;7.50;99.90
46706;DHT22;33519;50.712;7.124;2023-04-16T03:24:49;7.50;99.90
46706;DHT22;33519;50.712;7.124;2023-04-16T03:29:51;7.60;99.90
46706;DHT22;33519;50.712;7.124;2023-04-16T03:32:20;7.60;99.90
46706;DHT22;33519;50.712;7.124;2023-04-16T03:34:47;7.50;99.90
46706;DHT22;33519;50.712;7.124;2023-04-16T03:37:16;7.50;99.90
46706;DHT22;33519;50.712;7.124;2023-04-16T03:39:45;7.50;99.90
46706;DHT22;33519;50.712;7.124;2023-04-16T03:42:12;7.50;99.90
46706;DHT22;33519;50.712;7.124;2023-04-16T03:44:41;7.50;99.90
46706;DHT22;33519;50.712;7.124;2023-04-16T03:47:08;7.50;99.90
46706;DHT22;33519;50.712;7.124;2023-04-16T03:49:35;7.50;99.90
46706;DHT22;33519;50.712;7.124;2023-04-16T03:52:07;7.50;99.90
46706;DHT22;33519;50.712;7.124;2023-04-16T03:54:36;7.50;99.90
46706;DHT22;33519;50.712;7.124;2023-04-16T03:57:04;7.60;99.90
46706;DHT22;33519;50.712;7.124;2023-04-16T03:59:37;7.50;99.90
46706;DHT22;33519;50.712;7.124;2023-04-16T04:02:03;7.50;99.90
46706;DHT22;33519;50.712;7.124;2023-04-16T04:04:30;7.60;99.90
46706;DHT22;33519;50.712;7.124;2023-04-16T04:06:57;7.50;99.90
46706;DHT22;33519;50.712;7.124;2023-04-16T04:09:24;7.60;99.90
46706;DHT22;33519;50.712;7.124;2023-04-16T04:11:50;7.50;99.90
46706;DHT22;33519;50.712;7.124;2023-04-16T04:14:17;7.50;99.90
46706;DHT22;33519;50.712;7.124;2023-04-16T04:16:44;7.50;99.90
46706;DHT22;33519;50.712;7.124;2023-04-16T04:19:11;7.50;99.90
46706;DHT22;33519;50.712;7.124;2023-04-16T04:21:37;7.60;99.90
46706;DHT22;33519;50.712;7.124;2023-04-16T04:24:04;7.50;99.90
46706;DHT22;33519;50.712;7.124;2023-04-16T04:26:31;7.50;99.90
46706;DHT22;33519;50.712;7.124;2023-04-16T04:28:58;7.50;99.90
46706;DHT22;33519;50.712;7.124;2023-04-16T04:31:24;7.50;99.90
46706;DHT22;33519;50.712;7.124;2023-04-16T04:33:51;7.50;99.90
46706;DHT22;33519;50.712;7.124;2023-04-16T04:36:18;7.50;99.90
46706;DHT22;33519;50.712;7.124;2023-04-16T04:38:45;7.50;99.90
46706;DHT22;33519;50.712;7.124;2023-04-16T04:41:12;7.50;99.90
46706;DHT22;33519;50.712;7.124;2023-04-16T04:43:38;7.50;99.90
46706;DHT22;33519;50.712;7.124;2023-04-16T04:46:05;7.50;99.90
46706;DHT22;33519;50.712;7.124;2023-04-16T04:48:32;7.60;99.90
46706;DHT22;33519;50.712;7.124;2023-04-16T04:50:58;7.60;99.90
46706;DHT22;33519;50.712;7.124;2023-04-16T04:53:30;7.60;99.90
46706;DHT22;33519;50.712;7.124;2023-04-16T04:55:57;7.60;99.90
46706;DHT22;33519;50.712;7.124;2023-04-16T04:58:36;7.60;99.90
46706;DHT22;33519;50.712;7.124;2023-04-16T05:01:03;7.70;99.90
46706;DHT22;33519;50.712;7.124;2023-04-16T05:03:34;7.70;99.90
46706;DHT22;33519;50.712;7.124;2023-04-16T05:06:05;7.70;99.90
46706;DHT22;33519;50.712;7.124;2023-04-16T05:08:32;7.70;99.90
46706;DHT22;33519;50.712;7.124;2023-04-16T05:10:59;7.70;99.90
46706;DHT22;33519;50.712;7.124;2023-04-16T05:13:25;7.70;99.90
46706;DHT22;33519;50.712;7.124;2023-04-16T05:15:52;7.70;99.90
46706;DHT22;33519;50.712;7.124;2023-04-16T05:18:19;7.70;99.90
46706;DHT22;33519;50.712;7.124;2023-04-16T05:20:45;7.70;99.90
46706;DHT22;33519;50.712;7.124;2023-04-16T05:23:13;7.70;99.90
46706;DHT22;33519;50.712;7.124;2023-04-16T05:25:41;7.70;99.90
46706;DHT22;33519;50.712;7.124;2023-04-16T05:28:08;7.70;99.90
46706;DHT22;33519;50.712;7.124;2023-04-16T05:30:35;7.70;99.90
46706;DHT22;33519;50.712;7.124;2023-04-16T05:33:01;7.70;99.90
46706;DHT22;33519;50.712;7.124;2023-04-16T05:35:31;7.70;99.90
46706;DHT22;33519;50.712;7.124;2023-04-16T05:37:58;7.70;99.90
46706;DHT22;33519;50.712;7.124;2023-04-16T05:40:24;7.80;99.90
46706;DHT22;33519;50.712;7.124;2023-04-16T05:42:51;7.70;99.90
46706;DHT22;33519;50.712;7.124;2023-04-16T05:45:20;7.80;99.90
46706;DHT22;33519;50.712;7.124;2023-04-16T05:47:46;7.80;99.90
46706;DHT22;33519;50.712;7.124;2023-04-16T05:50:16;7.70;99.90
46706;DHT22;33519;50.712;7.124;2023-04-16T05:52:42;7.70;99.90
46706;DHT22;33519;50.712;7.124;2023-04-16T05:55:09;7.70;99.90
46706;DHT22;33519;50.712;7.124;2023-04-16T05:57:36;7.80;99.90
46706;DHT22;33519;50.712;7.124;2023-04-16T06:00:02;7.70;99.90
46706;DHT22;33519;50.712;7.124;2023-04-16T06:02:29;7.80;99.90
46706;DHT22;33519;50.712;7.124;2023-04-16T06:04:56;7.80;99.90
46706;DHT22;33519;50.712;7.124;2023-04-16T06:07:23;7.80;99.90
46706;DHT22;33519;50.712;7.124;2023-04-16T06:09:50;7.80;99.90
46706;DHT22;33519;50.712;7.124;2023-04-16T06:12:16;7.80;99.90
46706;DHT22;33519;50.712;7.124;2023-04-16T06:14:43;7.80;99.90
46706;DHT22;33519;50.712;7.124;2023-04-16T06:17:10;7.80;99.90
46706;DHT22;33519;50.712;7.124;2023-04-16T06:19:36;7.80;99.90
46706;DHT22;33519;50.712;7.124;2023-04-16T06:22:03;7.80;99.90
46706;DHT22;33519;50.712;7.124;2023-04-16T06:24:31;7.90;99.90
46706;DHT22;33519;50.712;7.124;2023-04-16T06:26:58;7.90;99.90
46706;DHT22;33519;50.712;7.124;2023-04-16T06:29:25;7.90;99.90
46706;DHT22;33519;50.712;7.124;2023-04-16T06:32:06;8.00;99.90
46706;DHT22;33519;50.712;7.124;2023-04-16T06:34:32;7.90;99.90
46706;DHT22;33519;50.712;7.124;2023-04-16T06:36:59;8.00;99.90
46706;DHT22;33519;50.712;7.124;2023-04-16T06:39:26;7.90;99.90
46706;DHT22;33519;50.712;7.124;2023-04-16T06:41:53;8.00;99.90
46706;DHT22;33519;50.712;7.124;2023-04-16T06:44:20;8.00;99.90
46706;DHT22;33519;50.712;7.124;2023-04-16T06:46:46;8.00;99.90
46706;DHT22;33519;50.712;7.124;2023-04-16T06:49:13;8.00;99.90
46706;DHT22;33519;50.712;7.124;2023-04-16T06:51:40;8.00;99.90
46706;DHT22;33519;50.712;7.124;2023-04-16T06:54:07;8.10;99.90
46706;DHT22;33519;50.712;7.124;2023-04-16T06:56:33;8.10;99.90
46706;DHT22;33519;50.712;7.124;2023-04-16T06:59:02;8.00;99.90
46706;DHT22;33519;50.712;7.124;2023-04-16T07:01:29;8.00;99.90
46706;DHT22;33519;50.712;7.124;2023-04-16T07:03:59;8.00;99.90
46706;DHT22;33519;50.712;7.124;2023-04-16T07:06:26;8.00;99.90
46706;DHT22;33519;50.712;7.124;2023-04-16T07:08:53;8.00;99.90
46706;DHT22;33519;50.712;7.124;2023-04-16T07:11:19;8.10;99.90
46706;DHT22;33519;50.712;7.124;2023-04-16T07:13:46;8.00;99.90
46706;DHT22;33519;50.712;7.124;2023-04-16T07:16:13;8.00;99.90
46706;DHT22;33519;50.712;7.124;2023-04-16T07:18:40;8.00;99.90
46706;DHT22;33519;50.712;7.124;2023-04-16T07:21:06;8.00;99.90
46706;DHT22;33519;50.712;7.124;2023-04-16T07:23:33;8.00;99.90
46706;DHT22;33519;50.712;7.124;2023-04-16T07:26:00;8.00;99.90
46706;DHT22;33519;50.712;7.124;2023-04-16T07:28:27;8.00;99.90
46706;DHT22;33519;50.712;7.124;2023-04-16T07:30:54;8.00;99.90
46706;DHT22;33519;50.712;7.124;2023-04-16T07:33:23;8.00;99.90
46706;DHT22;33519;50.712;7.124;2023-04-16T07:35:49;8.10;99.90
46706;DHT22;33519;50.712;7.124;2023-04-16T07:38:16;8.10;99.90
46706;DHT22;33519;50.712;7.124;2023-04-16T07:40:43;8.10;99.90
46706;DHT22;33519;50.712;7.124;2023-04-16T07:43:10;8.10;99.90
46706;DHT22;33519;50.712;7.124;2023-04-16T07:45:36;8.10;99.90
46706;DHT22;33519;50.712;7.124;2023-04-16T07:48:03;8.20;99.90
46706;DHT22;33519;50.712;7.124;2023-04-16T07:50:30;8.10;99.90
46706;DHT22;33519;50.712;7.124;2023-04-16T07:52:57;8.20;99.90
46706;DHT22;33519;50.712;7.124;2023-04-16T07:55:24;8.10;99.90
46706;DHT22;33519;50.712;7.124;2023-04-16T07:57:50;8.20;99.90
46706;DHT22;33519;50.712;7.124;2023-04-16T08:00:17;8.20;99.90
46706;DHT22;33519;50.712;7.124;2023-04-16T08:02:44;8.30;99.90
46706;DHT22;33519;50.712;7.124;2023-04-16T08:05:11;8.30;99.90
46706;DHT22;33519;50.712;7.124;2023-04-16T08:07:38;8.30;99.90
46706;DHT22;33519;50.712;7.124;2023-04-16T08:10:05;8.30;99.90
46706;DHT22;33519;50.712;7.124;2023-04-16T08:12:31;8.30;99.90
46706;DHT22;33519;50.712;7.124;2023-04-16T08:14:58;8.30;99.90
46706;DHT22;33519;50.712;7.124;2023-04-16T08:17:25;8.30;99.90
46706;DHT22;33519;50.712;7.124;2023-04-16T08:19:56;8.40;99.90
46706;DHT22;33519;50.712;7.124;2023-04-16T08:22:23;8.40;99.90
46706;DHT22;33519;50.712;7.124;2023-04-16T08:24:50;8.40;99.90
46706;DHT22;33519;50.712;7.124;2023-04-16T08:27:16;8.40;99.90
46706;DHT22;33519;50.712;7.124;2023-04-16T08:29:46;8.30;99.90
46706;DHT22;33519;50.712;7.124;2023-04-16T08:32:12;8.30;99.90
46706;DHT22;33519;50.712;7.124;2023-04-16T08:34:39;8.30;99.90
46706;DHT22;33519;50.712;7.124;2023-04-16T08:37:06;8.30;99.90
46706;DHT22;33519;50.712;7.124;2023-04-16T08:39:33;8.40;99.90
46706;DHT22;33519;50.712;7.124;2023-04-16T08:42:06;8.40;99.90
46706;DHT22;33519;50.712;7.124;2023-04-16T08:44:42;8.40;99.90
46706;DHT22;33519;50.712;7.124;2023-04-16T08:47:09;8.50;99.90
46706;DHT22;33519;50.712;7.124;2023-04-16T08:49:42;8.50;99.90
46706;DHT22;33519;50.712;7.124;2023-04-16T08:52:09;8.40;99.90
46706;DHT22;33519;50.712;7.124;2023-04-16T08:57:37;8.40;99.90
46706;DHT22;33519;50.712;7.124;2023-04-16T09:00:05;8.50;99.90
46706;DHT22;33519;50.712;7.124;2023-04-16T09:02:32;8.50;99.90
46706;DHT22;33519;50.712;7.124;2023-04-16T09:05:00;8.60;99.90
46706;DHT22;33519;50.712;7.124;2023-04-16T09:07:28;8.60;99.90
46706;DHT22;33519;50.712;7.124;2023-04-16T09:09:58;8.70;99.90
46706;DHT22;33519;50.712;7.124;2023-04-16T09:12:25;8.80;99.90
46706;DHT22;33519;50.712;7.124;2023-04-16T09:14:51;8.80;99.90
46706;DHT22;33519;50.712;7.124;2023-04-16T09:17:18;8.80;99.90
46706;DHT22;33519;50.712;7.124;2023-04-16T09:19:45;8.80;99.90
46706;DHT22;33519;50.712;7.124;2023-04-16T09:22:11;8.80;99.90
46706;DHT22;33519;50.712;7.124;2023-04-16T09:24:38;8.90;99.90
46706;DHT22;33519;50.712;7.124;2023-04-16T09:27:07;8.90;99.90
46706;DHT22;33519;50.712;7.124;2023-04-16T09:29:38;9.00;99.90
46706;DHT22;33519;50.712;7.124;2023-04-16T09:32:08;9.10;99.90
46706;DHT22;33519;50.712;7.124;2023-04-16T09:34:52;9.10;99.90
46706;DHT22;33519;50.712;7.124;2023-04-16T09:37:19;9.10;99.90
46706;DHT22;33519;50.712;7.124;2023-04-16T09:39:56;9.20;99.90
46706;DHT22;33519;50.712;7.124;2023-04-16T09:42:26;9.30;99.90
46706;DHT22;33519;50.712;7.124;2023-04-16T09:44:53;9.40;99.90
46706;DHT22;33519;50.712;7.124;2023-04-16T09:47:40;9.40;99.90
46706;DHT22;33519;50.712;7.124;2023-04-16T09:50:07;9.40;99.90
46706;DHT22;33519;50.712;7.124;2023-04-16T09:52:37;9.50;99.90
46706;DHT22;33519;50.712;7.124;2023-04-16T09:55:06;9.60;99.90
46706;DHT22;33519;50.712;7.124;2023-04-16T09:57:35;9.70;99.90
46706;DHT22;33519;50.712;7.124;2023-04-16T10:00:03;9.90;99.90
46706;DHT22;33519;50.712;7.124;2023-04-16T10:02:31;10.20;99.90
46706;DHT22;33519;50.712;7.124;2023-04-16T10:05:00;10.50;99.90
46706;DHT22;33519;50.712;7.124;2023-04-16T10:07:33;10.90;99.90
46706;DHT22;33519;50.712;7.124;2023-04-16T10:10:23;11.40;99.90
46706;DHT22;33519;50.712;7.124;2023-04-16T10:12:50;11.60;99.90
46706;DHT22;33519;50.712;7.124;2023-04-16T10:15:17;11.50;99.90
46706;DHT22;33519;50.712;7.124;2023-04-16T10:17:44;11.50;99.90
46706;DHT22;33519;50.712;7.124;2023-04-16T10:20:11;11.40;99.90
46706;DHT22;33519;50.712;7.124;2023-04-16T10:22:38;11.20;99.90
46706;DHT22;33519;50.712;7.124;2023-04-16T10:25:05;11.00;99.90
46706;DHT22;33519;50.712;7.124;2023-04-16T10:27:32;11.10;99.90
46706;DHT22;33519;50.712;7.124;2023-04-16T10:29:59;11.00;99.90
46706;DHT22;33519;50.712;7.124;2023-04-16T10:32:31;11.30;99.90
46706;DHT22;33519;50.712;7.124;2023-04-16T10:34:58;11.10;99.90
46706;DHT22;33519;50.712;7.124;2023-04-16T10:37:28;11.20;99.90
46706;DHT22;33519;50.712;7.124;2023-04-16T10:39:56;11.00;99.90
46706;DHT22;33519;50.712;7.124;2023-04-16T10:42:23;11.00;99.90
46706;DHT22;33519;50.712;7.124;2023-04-16T10:44:51;10.80;99.90
46706;DHT22;33519;50.712;7.124;2023-04-16T10:47:19;10.90;99.90
46706;DHT22;33519;50.712;7.124;2023-04-16T10:49:49;10.90;99.90
46706;DHT22;33519;50.712;7.124;2023-04-16T10:52:16;10.80;99.90
46706;DHT22;33519;50.712;7.124;2023-04-16T10:54:45;10.60;99.90
46706;DHT22;33519;50.712;7.124;2023-04-16T10:57:14;10.60;99.90
46706;DHT22;33519;50.712;7.124;2023-04-16T10:59:43;10.80;99.90
46706;DHT22;33519;50.712;7.124;2023-04-16T11:02:16;10.90;99.90
46706;DHT22;33519;50.712;7.124;2023-04-16T11:04:44;11.00;99.90
46706;DHT22;33519;50.712;7.124;2023-04-16T11:12:18;11.10;99.90
46706;DHT22;33519;50.712;7.124;2023-04-16T11:14:46;11.20;99.90
46706;DHT22;33519;50.712;7.124;2023-04-16T11:17:13;11.20;99.90
46706;DHT22;33519;50.712;7.124;2023-04-16T11:19:40;11.20;99.90
46706;DHT22;33519;50.712;7.124;2023-04-16T11:22:08;11.20;99.90
46706;DHT22;33519;50.712;7.124;2023-04-16T11:24:37;11.30;99.90
46706;DHT22;33519;50.712;7.124;2023-04-16T11:27:07;11.30;99.90
46706;DHT22;33519;50.712;7.124;2023-04-16T11:29:34;11.10;99.90
46706;DHT22;33519;50.712;7.124;2023-04-16T11:32:00;11.30;99.90
46706;DHT22;33519;50.712;7.124;2023-04-16T11:34:27;11.30;99.90
46706;DHT22;33519;50.712;7.124;2023-04-16T11:36:54;11.40;99.90
46706;DHT22;33519;50.712;7.124;2023-04-16T11:39:21;11.30;99.90
46706;DHT22;33519;50.712;7.124;2023-04-16T11:41:49;11.40;99.90
46706;DHT22;33519;50.712;7.124;2023-04-16T11:44:21;11.70;99.90
46706;DHT22;33519;50.712;7.124;2023-04-16T11:46:49;11.80;99.90
46706;DHT22;33519;50.712;7.124;2023-04-16T11:49:16;11.90;99.90
46706;DHT22;33519;50.712;7.124;2023-04-16T11:51:44;11.90;99.90
46706;DHT22;33519;50.712;7.124;2023-04-16T11:54:17;12.10;99.90
46706;DHT22;33519;50.712;7.124;2023-04-16T11:56:46;11.90;99.90
46706;DHT22;33519;50.712;7.124;2023-04-16T11:59:14;11.90;99.90
46706;DHT22;33519;50.712;7.124;2023-04-16T12:01:45;12.10;99.90
46706;DHT22;33519;50.712;7.124;2023-04-16T12:04:13;11.90;99.90
46706;DHT22;33519;50.712;7.124;2023-04-16T12:09:26;12.10;99.90
46706;DHT22;33519;50.712;7.124;2023-04-16T12:11:53;12.10;99.90
46706;DHT22;33519;50.712;7.124;2023-04-16T12:14:20;12.40;99.90
46706;DHT22;33519;50.712;7.124;2023-04-16T12:16:47;12.60;99.90
46706;DHT22;33519;50.712;7.124;2023-04-16T12:19:13;12.50;99.90
46706;DHT22;33519;50.712;7.124;2023-04-16T12:21:41;12.50;99.90
46706;DHT22;33519;50.712;7.124;2023-04-16T12:24:09;12.30;99.90
46706;DHT22;33519;50.712;7.124;2023-04-16T12:26:40;12.10;99.90
46706;DHT22;33519;50.712;7.124;2023-04-16T12:29:27;12.30;99.90
46706;DHT22;33519;50.712;7.124;2023-04-16T12:31:53;12.50;99.90
46706;DHT22;33519;50.712;7.124;2023-04-16T12:34:20;12.80;99.90
46706;DHT22;33519;50.712;7.124;2023-04-16T12:37:05;13.10;99.90
46706;DHT22;33519;50.712;7.124;2023-04-16T12:39:32;13.50;99.90
46706;DHT22;33519;50.712;7.124;2023-04-16T12:41:59;13.40;99.90
46706;DHT22;33519;50.712;7.124;2023-04-16T12:44:26;13.60;99.90
46706;DHT22;33519;50.712;7.124;2023-04-16T12:46:54;13.40;99.90
46706;DHT22;33519;50.712;7.124;2023-04-16T12:49:21;12.90;99.90
46706;DHT22;33519;50.712;7.124;2023-04-16T12:51:48;12.80;99.90
46706;DHT22;33519;50.712;7.124;2023-04-16T12:54:15;12.40;99.90
46706;DHT22;33519;50.712;7.124;2023-04-16T12:56:44;12.20;99.90
46706;DHT22;33519;50.712;7.124;2023-04-16T13:01:42;12.40;99.90
46706;DHT22;33519;50.712;7.124;2023-04-16T13:04:08;12.60;99.90
46706;DHT22;33519;50.712;7.124;2023-04-16T13:06:35;12.60;99.90
46706;DHT22;33519;50.712;7.124;2023-04-16T13:09:03;12.80;99.90
46706;DHT22;33519;50.712;7.124;2023-04-16T13:11:30;13.40;99.90
46706;DHT22;33519;50.712;7.124;2023-04-16T13:13:57;13.90;99.90
46706;DHT22;33519;50.712;7.124;2023-04-16T13:16:24;14.20;99.90
46706;DHT22;33519;50.712;7.124;2023-04-16T13:18:51;14.70;99.90
46706;DHT22;33519;50.712;7.124;2023-04-16T13:21:18;15.10;99.90
46706;DHT22;33519;50.712;7.124;2023-04-16T13:23:44;15.00;99.90
46706;DHT22;33519;50.712;7.124;2023-04-16T13:26:11;15.90;99.90
46706;DHT22;33519;50.712;7.124;2023-04-16T13:28:42;15.10;99.90
46706;DHT22;33519;50.712;7.124;2023-04-16T13:31:09;15.10;99.90
46706;DHT22;33519;50.712;7.124;2023-04-16T13:33:35;14.30;99.90
46706;DHT22;33519;50.712;7.124;2023-04-16T13:36:03;13.90;99.90
46706;DHT22;33519;50.712;7.124;2023-04-16T13:38:30;13.70;99.90
46706;DHT22;33519;50.712;7.124;2023-04-16T13:40:57;13.50;99.90
46706;DHT22;33519;50.712;7.124;2023-04-16T13:43:23;13.40;99.90
46706;DHT22;33519;50.712;7.124;2023-04-16T13:45:50;13.10;99.90
46706;DHT22;33519;50.712;7.124;2023-04-16T13:48:17;13.30;99.90
46706;DHT22;33519;50.712;7.124;2023-04-16T13:50:43;13.20;99.90
46706;DHT22;33519;50.712;7.124;2023-04-16T13:53:13;13.20;99.90
46706;DHT22;33519;50.712;7.124;2023-04-16T13:55:41;13.60;99.90
46706;DHT22;33519;50.712;7.124;2023-04-16T13:58:07;13.80;99.90
46706;DHT22;33519;50.712;7.124;2023-04-16T14:00:34;14.10;99.90
46706;DHT22;33519;50.712;7.124;2023-04-16T14:03:01;14.10;99.90
46706;DHT22;33519;50.712;7.124;2023-04-16T14:05:28;14.20;99.90
46706;DHT22;33519;50.712;7.124;2023-04-16T14:07:54;14.10;99.90
46706;DHT22;33519;50.712;7.124;2023-04-16T14:10:21;14.00;99.90
46706;DHT22;33519;50.712;7.124;2023-04-16T14:12:48;13.80;99.90
46706;DHT22;33519;50.712;7.124;2023-04-16T14:15:15;13.70;99.90
46706;DHT22;33519;50.712;7.124;2023-04-16T14:17:42;13.50;99.90
46706;DHT22;33519;50.712;7.124;2023-04-16T14:20:10;13.40;99.90
46706;DHT22;33519;50.712;7.124;2023-04-16T14:22:37;13.20;99.90
46706;DHT22;33519;50.712;7.124;2023-04-16T14:25:05;13.00;99.90
46706;DHT22;33519;50.712;7.124;2023-04-16T14:27:32;12.80;99.90
46706;DHT22;33519;50.712;7.124;2023-04-16T14:29:59;12.80;99.90
46706;DHT22;33519;50.712;7.124;2023-04-16T14:32:26;12.90;99.90
46706;DHT22;33519;50.712;7.124;2023-04-16T14:34:53;13.10;99.90
46706;DHT22;33519;50.712;7.124;2023-04-16T14:37:19;13.30;99.90
46706;DHT22;33519;50.712;7.124;2023-04-16T14:39:46;13.30;99.90
46706;DHT22;33519;50.712;7.124;2023-04-16T14:42:12;13.30;99.90
46706;DHT22;33519;50.712;7.124;2023-04-16T14:44:41;13.30;99.90
46706;DHT22;33519;50.712;7.124;2023-04-16T14:47:08;13.30;99.90
46706;DHT22;33519;50.712;7.124;2023-04-16T14:49:35;13.40;99.90
46706;DHT22;33519;50.712;7.124;2023-04-16T14:52:02;13.40;99.90
46706;DHT22;33519;50.712;7.124;2023-04-16T14:54:30;13.30;99.90
46706;DHT22;33519;50.712;7.124;2023-04-16T14:56:58;13.40;99.90
46706;DHT22;33519;50.712;7.124;2023-04-16T14:59:25;13.40;99.90
46706;DHT22;33519;50.712;7.124;2023-04-16T15:01:51;13.20;99.90
46706;DHT22;33519;50.712;7.124;2023-04-16T15:04:18;13.10;99.90
46706;DHT22;33519;50.712;7.124;2023-04-16T15:06:45;13.00;99.90
46706;DHT22;33519;50.712;7.124;2023-04-16T15:09:12;13.00;99.90
46706;DHT22;33519;50.712;7.124;2023-04-16T15:11:39;12.80;99.90
46706;DHT22;33519;50.712;7.124;2023-04-16T15:14:05;13.00;99.90
46706;DHT22;33519;50.712;7.124;2023-04-16T15:16:32;13.00;99.90
46706;DHT22;33519;50.712;7.124;2023-04-16T15:19:02;13.00;99.90
46706;DHT22;33519;50.712;7.124;2023-04-16T15:21:30;13.10;99.90
46706;DHT22;33519;50.712;7.124;2023-04-16T15:23:57;13.20;99.90
46706;DHT22;33519;50.712;7.124;2023-04-16T15:26:24;13.00;99.90
46706;DHT22;33519;50.712;7.124;2023-04-16T15:28:51;13.00;99.90
46706;DHT22;33519;50.712;7.124;2023-04-16T15:31:18;13.10;99.90
46706;DHT22;33519;50.712;7.124;2023-04-16T15:33:46;13.20;99.90
46706;DHT22;33519;50.712;7.124;2023-04-16T15:36:13;13.30;99.90
46706;DHT22;33519;50.712;7.124;2023-04-16T15:38:40;13.30;99.90
46706;DHT22;33519;50.712;7.124;2023-04-16T15:41:08;13.30;99.90
46706;DHT22;33519;50.712;7.124;2023-04-16T15:43:34;13.40;99.90
46706;DHT22;33519;50.712;7.124;2023-04-16T15:46:01;13.20;99.90
46706;DHT22;33519;50.712;7.124;2023-04-16T15:48:28;13.40;99.90
46706;DHT22;33519;50.712;7.124;2023-04-16T15:50:54;13.30;99.90
46706;DHT22;33519;50.712;7.124;2023-04-16T15:53:21;13.60;99.90
46706;DHT22;33519;50.712;7.124;2023-04-16T15:55:48;13.70;99.90
46706;DHT22;33519;50.712;7.124;2023-04-16T15:58:18;13.60;99.90